Terminal Aerodrome Forecast
Issued by NWS Burlington, VT

Home | Current Version | Previous Version | Text Only | Print | Product List | Glossary On
Versions: 1 2 3 4 5 6 7 8 9 10 11 12 13 14 15 16 17 18 19 20
000
FTUS41 KBTV 020500
TAFBTV
TAF
KBTV 020520Z 0206/0306 00000KT 6SM BR SCT006
      TEMPO 0206/0210 OVC006
     FM021000 00000KT P6SM BKN006 BKN018 OVC040
     FM021300 VRB02KT P6SM SCT018
     FM021500 17005KT P6SM BKN040
     FM021800 24005KT P6SM SCT200=

USA.gov is the U.S. government's official web portal to all federal, state and local government web resources and services.